sensor_id;sensor_type;location;lat;lon;timestamp;P1;durP1;ratioP1;P2;durP2;ratioP2
49488;SDS011;35382;51.484;11.476;2022-09-13T00:00:54;148.82;;;143.07;;
49488;SDS011;35382;51.484;11.476;2022-09-13T00:02:35;135.50;;;130.25;;
49488;SDS011;35382;51.484;11.476;2022-09-13T00:04:16;130.73;;;125.63;;
49488;SDS011;35382;51.484;11.476;2022-09-13T00:05:57;130.57;;;125.60;;
49488;SDS011;35382;51.484;11.476;2022-09-13T00:07:39;124.95;;;120.03;;
49488;SDS011;35382;51.484;11.476;2022-09-13T00:09:20;126.50;;;121.60;;
49488;SDS011;35382;51.484;11.476;2022-09-13T00:11:01;125.75;;;120.88;;
49488;SDS011;35382;51.484;11.476;2022-09-13T00:12:42;119.18;;;114.47;;
49488;SDS011;35382;51.484;11.476;2022-09-13T00:14:23;117.38;;;112.63;;
49488;SDS011;35382;51.484;11.476;2022-09-13T00:16:08;105.60;;;101.50;;
49488;SDS011;35382;51.484;11.476;2022-09-13T00:17:51;108.75;;;104.38;;
49488;SDS011;35382;51.484;11.476;2022-09-13T00:19:32;105.18;;;101.00;;
49488;SDS011;35382;51.484;11.476;2022-09-13T00:21:14;114.25;;;109.70;;
49488;SDS011;35382;51.484;11.476;2022-09-13T00:22:57;114.63;;;110.07;;
49488;SDS011;35382;51.484;11.476;2022-09-13T00:24:38;116.75;;;112.03;;
49488;SDS011;35382;51.484;11.476;2022-09-13T00:26:24;121.28;;;116.55;;
49488;SDS011;35382;51.484;11.476;2022-09-13T00:28:07;106.57;;;102.20;;
49488;SDS011;35382;51.484;11.476;2022-09-13T00:29:48;117.13;;;112.32;;
49488;SDS011;35382;51.484;11.476;2022-09-13T00:31:28;112.35;;;107.68;;
49488;SDS011;35382;51.484;11.476;2022-09-13T00:33:09;110.30;;;105.80;;
49488;SDS011;35382;51.484;11.476;2022-09-13T00:34:50;108.35;;;103.82;;
49488;SDS011;35382;51.484;11.476;2022-09-13T00:36:31;118.88;;;114.07;;
49488;SDS011;35382;51.484;11.476;2022-09-13T00:38:12;118.15;;;113.50;;
49488;SDS011;35382;51.484;11.476;2022-09-13T00:39:53;111.32;;;106.88;;
49488;SDS011;35382;51.484;11.476;2022-09-13T00:41:34;110.85;;;106.40;;
49488;SDS011;35382;51.484;11.476;2022-09-13T00:43:19;128.27;;;123.15;;
49488;SDS011;35382;51.484;11.476;2022-09-13T00:45:22;122.40;;;117.60;;
49488;SDS011;35382;51.484;11.476;2022-09-13T00:47:03;117.50;;;112.85;;
49488;SDS011;35382;51.484;11.476;2022-09-13T00:48:44;126.40;;;121.35;;
49488;SDS011;35382;51.484;11.476;2022-09-13T00:50:28;124.18;;;119.32;;
49488;SDS011;35382;51.484;11.476;2022-09-13T00:52:15;119.30;;;114.43;;
49488;SDS011;35382;51.484;11.476;2022-09-13T00:53:59;116.95;;;112.30;;
49488;SDS011;35382;51.484;11.476;2022-09-13T00:55:49;122.43;;;117.43;;
49488;SDS011;35382;51.484;11.476;2022-09-13T00:57:36;123.40;;;118.30;;
49488;SDS011;35382;51.484;11.476;2022-09-13T00:59:20;137.07;;;131.80;;
49488;SDS011;35382;51.484;11.476;2022-09-13T01:01:25;135.73;;;130.35;;
49488;SDS011;35382;51.484;11.476;2022-09-13T01:03:11;138.32;;;132.98;;
49488;SDS011;35382;51.484;11.476;2022-09-13T01:04:54;131.73;;;126.47;;
49488;SDS011;35382;51.484;11.476;2022-09-13T01:06:35;151.35;;;145.43;;
49488;SDS011;35382;51.484;11.476;2022-09-13T01:08:18;148.43;;;142.70;;
49488;SDS011;35382;51.484;11.476;2022-09-13T01:10:02;143.13;;;137.63;;
49488;SDS011;35382;51.484;11.476;2022-09-13T01:12:00;143.52;;;137.73;;
49488;SDS011;35382;51.484;11.476;2022-09-13T01:13:47;140.65;;;135.18;;
49488;SDS011;35382;51.484;11.476;2022-09-13T01:15:28;159.30;;;153.00;;
49488;SDS011;35382;51.484;11.476;2022-09-13T01:17:09;152.85;;;146.73;;
49488;SDS011;35382;51.484;11.476;2022-09-13T01:18:50;160.65;;;154.35;;
49488;SDS011;35382;51.484;11.476;2022-09-13T01:20:38;158.75;;;152.60;;
49488;SDS011;35382;51.484;11.476;2022-09-13T01:22:38;147.82;;;142.07;;
49488;SDS011;35382;51.484;11.476;2022-09-13T01:28:52;116.75;;;112.03;;
49488;SDS011;35382;51.484;11.476;2022-09-13T01:31:06;113.47;;;108.97;;
49488;SDS011;35382;51.484;11.476;2022-09-13T01:35:10;119.57;;;114.75;;
49488;SDS011;35382;51.484;11.476;2022-09-13T01:39:13;128.70;;;123.65;;
49488;SDS011;35382;51.484;11.476;2022-09-13T01:41:08;137.07;;;131.70;;
49488;SDS011;35382;51.484;11.476;2022-09-13T01:43:13;132.90;;;127.53;;
49488;SDS011;35382;51.484;11.476;2022-09-13T01:49:20;145.18;;;139.45;;
49488;SDS011;35382;51.484;11.476;2022-09-13T01:51:16;154.35;;;148.10;;
49488;SDS011;35382;51.484;11.476;2022-09-13T01:53:26;134.95;;;129.25;;
49488;SDS011;35382;51.484;11.476;2022-09-13T01:57:23;153.48;;;147.35;;
49488;SDS011;35382;51.484;11.476;2022-09-13T02:03:05;148.25;;;142.38;;
49488;SDS011;35382;51.484;11.476;2022-09-13T02:04:53;151.02;;;144.98;;
49488;SDS011;35382;51.484;11.476;2022-09-13T02:06:46;144.07;;;138.40;;
49488;SDS011;35382;51.484;11.476;2022-09-13T02:08:37;148.77;;;143.05;;
49488;SDS011;35382;51.484;11.476;2022-09-13T02:10:28;140.35;;;134.73;;
49488;SDS011;35382;51.484;11.476;2022-09-13T02:12:15;156.48;;;150.18;;
49488;SDS011;35382;51.484;11.476;2022-09-13T02:14:03;139.93;;;134.45;;
49488;SDS011;35382;51.484;11.476;2022-09-13T02:15:50;141.32;;;135.77;;
49488;SDS011;35382;51.484;11.476;2022-09-13T02:17:37;120.90;;;116.15;;
49488;SDS011;35382;51.484;11.476;2022-09-13T02:19:24;158.73;;;152.50;;
49488;SDS011;35382;51.484;11.476;2022-09-13T02:21:13;152.35;;;146.18;;
49488;SDS011;35382;51.484;11.476;2022-09-13T02:23:01;138.88;;;133.27;;
49488;SDS011;35382;51.484;11.476;2022-09-13T02:24:47;134.40;;;129.05;;
49488;SDS011;35382;51.484;11.476;2022-09-13T02:26:31;146.70;;;140.75;;
49488;SDS011;35382;51.484;11.476;2022-09-13T02:28:15;146.48;;;140.63;;
49488;SDS011;35382;51.484;11.476;2022-09-13T02:30:02;149.35;;;143.43;;
49488;SDS011;35382;51.484;11.476;2022-09-13T02:36:19;155.77;;;149.50;;
49488;SDS011;35382;51.484;11.476;2022-09-13T02:38:04;173.25;;;166.43;;
49488;SDS011;35382;51.484;11.476;2022-09-13T02:42:57;146.02;;;140.15;;
49488;SDS011;35382;51.484;11.476;2022-09-13T02:44:49;146.27;;;140.43;;
49488;SDS011;35382;51.484;11.476;2022-09-13T02:46:42;155.20;;;148.93;;
49488;SDS011;35382;51.484;11.476;2022-09-13T02:52:18;134.65;;;129.23;;
49488;SDS011;35382;51.484;11.476;2022-09-13T02:56:16;121.22;;;116.35;;
49488;SDS011;35382;51.484;11.476;2022-09-13T02:58:09;123.47;;;118.50;;
49488;SDS011;35382;51.484;11.476;2022-09-13T02:59:58;117.93;;;113.05;;
49488;SDS011;35382;51.484;11.476;2022-09-13T03:01:41;117.38;;;112.63;;
49488;SDS011;35382;51.484;11.476;2022-09-13T03:03:27;119.87;;;114.93;;
49488;SDS011;35382;51.484;11.476;2022-09-13T03:05:08;125.63;;;120.47;;
49488;SDS011;35382;51.484;11.476;2022-09-13T03:06:49;126.43;;;121.35;;
49488;SDS011;35382;51.484;11.476;2022-09-13T03:08:30;127.00;;;121.85;;
49488;SDS011;35382;51.484;11.476;2022-09-13T03:10:14;122.90;;;117.95;;
49488;SDS011;35382;51.484;11.476;2022-09-13T03:11:57;128.27;;;122.95;;
49488;SDS011;35382;51.484;11.476;2022-09-13T03:13:59;114.88;;;110.07;;
49488;SDS011;35382;51.484;11.476;2022-09-13T03:15:59;115.03;;;110.38;;
49488;SDS011;35382;51.484;11.476;2022-09-13T03:18:21;102.95;;;98.78;;
49488;SDS011;35382;51.484;11.476;2022-09-13T03:24:21;96.05;;;92.05;;
49488;SDS011;35382;51.484;11.476;2022-09-13T03:30:10;101.93;;;97.68;;
49488;SDS011;35382;51.484;11.476;2022-09-13T03:31:57;92.70;;;88.90;;
49488;SDS011;35382;51.484;11.476;2022-09-13T03:34:05;97.38;;;93.30;;
49488;SDS011;35382;51.484;11.476;2022-09-13T03:35:50;139.20;;;133.65;;
49488;SDS011;35382;51.484;11.476;2022-09-13T03:37:42;146.90;;;140.88;;
49488;SDS011;35382;51.484;11.476;2022-09-13T03:39:47;134.05;;;128.57;;
49488;SDS011;35382;51.484;11.476;2022-09-13T03:41:35;138.45;;;132.73;;
49488;SDS011;35382;51.484;11.476;2022-09-13T03:43:23;133.90;;;128.52;;
49488;SDS011;35382;51.484;11.476;2022-09-13T03:45:16;133.50;;;127.82;;
49488;SDS011;35382;51.484;11.476;2022-09-13T03:47:00;141.10;;;134.80;;
49488;SDS011;35382;51.484;11.476;2022-09-13T03:48:43;151.13;;;144.80;;
49488;SDS011;35382;51.484;11.476;2022-09-13T03:50:25;153.35;;;146.93;;
49488;SDS011;35382;51.484;11.476;2022-09-13T03:52:06;161.23;;;154.75;;
49488;SDS011;35382;51.484;11.476;2022-09-13T03:53:50;201.43;;;187.57;;
49488;SDS011;35382;51.484;11.476;2022-09-13T03:55:39;160.30;;;153.65;;
49488;SDS011;35382;51.484;11.476;2022-09-13T03:57:22;163.02;;;156.45;;
49488;SDS011;35382;51.484;11.476;2022-09-13T03:59:03;159.10;;;152.65;;
49488;SDS011;35382;51.484;11.476;2022-09-13T04:00:44;167.43;;;160.43;;
49488;SDS011;35382;51.484;11.476;2022-09-13T04:02:25;158.80;;;152.30;;
49488;SDS011;35382;51.484;11.476;2022-09-13T04:04:06;157.50;;;151.13;;
49488;SDS011;35382;51.484;11.476;2022-09-13T04:05:47;158.95;;;152.55;;
49488;SDS011;35382;51.484;11.476;2022-09-13T04:07:28;157.20;;;150.70;;
49488;SDS011;35382;51.484;11.476;2022-09-13T04:09:09;152.30;;;146.15;;
49488;SDS011;35382;51.484;11.476;2022-09-13T04:10:50;156.38;;;150.13;;
49488;SDS011;35382;51.484;11.476;2022-09-13T04:12:31;158.40;;;151.95;;
49488;SDS011;35382;51.484;11.476;2022-09-13T04:14:14;151.00;;;145.02;;
49488;SDS011;35382;51.484;11.476;2022-09-13T04:15:59;160.85;;;154.45;;
49488;SDS011;35382;51.484;11.476;2022-09-13T04:17:41;154.80;;;148.45;;
49488;SDS011;35382;51.484;11.476;2022-09-13T04:19:23;160.52;;;154.05;;
49488;SDS011;35382;51.484;11.476;2022-09-13T04:21:05;147.70;;;141.52;;
49488;SDS011;35382;51.484;11.476;2022-09-13T04:22:52;152.88;;;146.65;;
49488;SDS011;35382;51.484;11.476;2022-09-13T04:24:37;150.50;;;144.43;;
49488;SDS011;35382;51.484;11.476;2022-09-13T04:26:19;144.75;;;138.80;;
49488;SDS011;35382;51.484;11.476;2022-09-13T04:28:00;137.52;;;131.90;;
49488;SDS011;35382;51.484;11.476;2022-09-13T04:29:41;137.82;;;132.20;;
49488;SDS011;35382;51.484;11.476;2022-09-13T04:31:22;141.93;;;136.15;;
49488;SDS011;35382;51.484;11.476;2022-09-13T04:33:03;141.45;;;135.57;;
49488;SDS011;35382;51.484;11.476;2022-09-13T04:34:47;142.10;;;136.35;;
49488;SDS011;35382;51.484;11.476;2022-09-13T04:36:28;142.70;;;136.93;;
49488;SDS011;35382;51.484;11.476;2022-09-13T04:38:09;144.90;;;138.85;;
49488;SDS011;35382;51.484;11.476;2022-09-13T04:39:50;155.48;;;149.23;;
49488;SDS011;35382;51.484;11.476;2022-09-13T04:41:31;153.15;;;146.98;;
49488;SDS011;35382;51.484;11.476;2022-09-13T04:43:14;147.60;;;141.52;;
49488;SDS011;35382;51.484;11.476;2022-09-13T04:44:55;153.52;;;147.25;;
49488;SDS011;35382;51.484;11.476;2022-09-13T04:46:36;154.93;;;148.48;;
49488;SDS011;35382;51.484;11.476;2022-09-13T04:48:17;155.43;;;149.10;;
49488;SDS011;35382;51.484;11.476;2022-09-13T04:49:58;149.32;;;143.20;;
49488;SDS011;35382;51.484;11.476;2022-09-13T04:51:39;145.65;;;139.68;;
49488;SDS011;35382;51.484;11.476;2022-09-13T04:53:20;145.82;;;139.73;;
49488;SDS011;35382;51.484;11.476;2022-09-13T04:55:01;152.85;;;146.43;;
49488;SDS011;35382;51.484;11.476;2022-09-13T04:56:42;154.27;;;147.75;;
49488;SDS011;35382;51.484;11.476;2022-09-13T04:58:24;154.30;;;147.90;;
49488;SDS011;35382;51.484;11.476;2022-09-13T05:00:05;152.93;;;146.68;;
49488;SDS011;35382;51.484;11.476;2022-09-13T05:01:47;157.18;;;150.70;;
49488;SDS011;35382;51.484;11.476;2022-09-13T05:03:28;154.25;;;147.80;;
49488;SDS011;35382;51.484;11.476;2022-09-13T05:05:13;153.15;;;146.98;;
49488;SDS011;35382;51.484;11.476;2022-09-13T05:06:54;164.25;;;157.63;;
49488;SDS011;35382;51.484;11.476;2022-09-13T05:08:35;166.27;;;159.63;;
49488;SDS011;35382;51.484;11.476;2022-09-13T05:10:17;165.15;;;158.43;;
49488;SDS011;35382;51.484;11.476;2022-09-13T05:11:58;154.15;;;147.75;;
49488;SDS011;35382;51.484;11.476;2022-09-13T05:13:39;150.27;;;143.95;;
49488;SDS011;35382;51.484;11.476;2022-09-13T05:15:20;161.52;;;155.00;;
49488;SDS011;35382;51.484;11.476;2022-09-13T05:17:01;158.98;;;152.48;;
49488;SDS011;35382;51.484;11.476;2022-09-13T05:18:42;155.50;;;149.13;;
49488;SDS011;35382;51.484;11.476;2022-09-13T05:20:23;159.93;;;153.35;;
49488;SDS011;35382;51.484;11.476;2022-09-13T05:22:04;169.68;;;162.77;;
49488;SDS011;35382;51.484;11.476;2022-09-13T05:23:47;150.73;;;144.20;;
49488;SDS011;35382;51.484;11.476;2022-09-13T05:25:29;142.57;;;136.27;;
49488;SDS011;35382;51.484;11.476;2022-09-13T05:27:10;143.07;;;136.68;;
49488;SDS011;35382;51.484;11.476;2022-09-13T05:28:51;152.38;;;145.60;;
49488;SDS011;35382;51.484;11.476;2022-09-13T05:30:32;155.00;;;148.27;;
49488;SDS011;35382;51.484;11.476;2022-09-13T05:32:13;151.18;;;144.27;;
49488;SDS011;35382;51.484;11.476;2022-09-13T05:33:55;163.70;;;156.32;;
49488;SDS011;35382;51.484;11.476;2022-09-13T05:35:39;171.23;;;163.73;;
49488;SDS011;35382;51.484;11.476;2022-09-13T05:37:20;178.95;;;170.73;;
49488;SDS011;35382;51.484;11.476;2022-09-13T05:39:01;185.77;;;177.40;;
49488;SDS011;35382;51.484;11.476;2022-09-13T05:40:43;181.15;;;172.88;;
49488;SDS011;35382;51.484;11.476;2022-09-13T05:42:24;199.10;;;190.15;;
49488;SDS011;35382;51.484;11.476;2022-09-13T05:44:05;213.25;;;203.88;;
49488;SDS011;35382;51.484;11.476;2022-09-13T05:45:46;176.65;;;168.80;;
49488;SDS011;35382;51.484;11.476;2022-09-13T05:47:27;202.98;;;193.63;;
49488;SDS011;35382;51.484;11.476;2022-09-13T05:49:10;182.63;;;174.25;;
49488;SDS011;35382;51.484;11.476;2022-09-13T05:50:51;205.88;;;196.73;;
49488;SDS011;35382;51.484;11.476;2022-09-13T05:52:32;206.50;;;197.10;;
49488;SDS011;35382;51.484;11.476;2022-09-13T05:54:13;220.07;;;210.13;;
49488;SDS011;35382;51.484;11.476;2022-09-13T05:55:54;206.32;;;197.02;;
49488;SDS011;35382;51.484;11.476;2022-09-13T05:57:35;213.52;;;203.98;;
49488;SDS011;35382;51.484;11.476;2022-09-13T05:59:17;212.43;;;202.95;;
49488;SDS011;35382;51.484;11.476;2022-09-13T06:00:58;191.88;;;182.93;;
49488;SDS011;35382;51.484;11.476;2022-09-13T06:02:39;187.48;;;178.52;;
49488;SDS011;35382;51.484;11.476;2022-09-13T06:04:20;186.02;;;177.30;;
49488;SDS011;35382;51.484;11.476;2022-09-13T06:06:01;193.98;;;184.80;;
49488;SDS011;35382;51.484;11.476;2022-09-13T06:07:43;188.57;;;179.55;;
49488;SDS011;35382;51.484;11.476;2022-09-13T06:09:24;187.90;;;179.23;;
49488;SDS011;35382;51.484;11.476;2022-09-13T06:11:06;196.32;;;186.88;;
49488;SDS011;35382;51.484;11.476;2022-09-13T06:12:49;193.27;;;184.52;;
49488;SDS011;35382;51.484;11.476;2022-09-13T06:14:30;185.45;;;176.48;;
49488;SDS011;35382;51.484;11.476;2022-09-13T06:16:12;188.23;;;178.90;;
49488;SDS011;35382;51.484;11.476;2022-09-13T06:17:53;235.05;;;219.77;;
49488;SDS011;35382;51.484;11.476;2022-09-13T06:19:34;256.38;;;240.07;;
49488;SDS011;35382;51.484;11.476;2022-09-13T06:21:19;237.40;;;223.13;;
49488;SDS011;35382;51.484;11.476;2022-09-13T06:23:01;238.00;;;223.95;;
49488;SDS011;35382;51.484;11.476;2022-09-13T06:24:42;242.75;;;229.20;;
49488;SDS011;35382;51.484;11.476;2022-09-13T06:26:24;234.45;;;222.05;;
49488;SDS011;35382;51.484;11.476;2022-09-13T06:28:06;208.55;;;197.95;;
49488;SDS011;35382;51.484;11.476;2022-09-13T06:29:47;198.50;;;189.07;;
49488;SDS011;35382;51.484;11.476;2022-09-13T06:31:28;191.45;;;182.13;;
49488;SDS011;35382;51.484;11.476;2022-09-13T06:33:09;184.25;;;175.35;;
49488;SDS011;35382;51.484;11.476;2022-09-13T06:34:50;176.73;;;168.27;;
49488;SDS011;35382;51.484;11.476;2022-09-13T06:36:31;169.63;;;161.15;;
49488;SDS011;35382;51.484;11.476;2022-09-13T06:38:12;168.15;;;159.80;;
49488;SDS011;35382;51.484;11.476;2022-09-13T06:39:54;162.07;;;154.27;;
49488;SDS011;35382;51.484;11.476;2022-09-13T06:41:35;171.75;;;163.38;;
49488;SDS011;35382;51.484;11.476;2022-09-13T06:43:16;174.05;;;165.63;;
49488;SDS011;35382;51.484;11.476;2022-09-13T06:44:57;175.02;;;166.30;;
49488;SDS011;35382;51.484;11.476;2022-09-13T06:46:39;182.73;;;174.23;;
49488;SDS011;35382;51.484;11.476;2022-09-13T06:48:20;179.70;;;171.13;;
49488;SDS011;35382;51.484;11.476;2022-09-13T06:50:01;158.88;;;151.02;;
49488;SDS011;35382;51.484;11.476;2022-09-13T06:51:42;160.80;;;152.77;;
49488;SDS011;35382;51.484;11.476;2022-09-13T06:53:23;158.27;;;150.60;;
49488;SDS011;35382;51.484;11.476;2022-09-13T06:55:04;159.93;;;152.02;;
49488;SDS011;35382;51.484;11.476;2022-09-13T06:56:45;170.25;;;162.05;;
49488;SDS011;35382;51.484;11.476;2022-09-13T06:58:27;167.80;;;159.57;;
49488;SDS011;35382;51.484;11.476;2022-09-13T07:00:09;160.75;;;153.15;;
49488;SDS011;35382;51.484;11.476;2022-09-13T07:01:51;169.40;;;160.93;;
49488;SDS011;35382;51.484;11.476;2022-09-13T07:03:31;168.63;;;160.40;;
49488;SDS011;35382;51.484;11.476;2022-09-13T07:05:12;160.68;;;152.85;;
49488;SDS011;35382;51.484;11.476;2022-09-13T07:06:56;162.68;;;154.63;;
49488;SDS011;35382;51.484;11.476;2022-09-13T07:08:38;160.15;;;152.35;;
49488;SDS011;35382;51.484;11.476;2022-09-13T07:10:20;160.95;;;152.88;;
49488;SDS011;35382;51.484;11.476;2022-09-13T07:12:01;185.45;;;176.63;;
49488;SDS011;35382;51.484;11.476;2022-09-13T07:13:48;168.27;;;160.02;;
49488;SDS011;35382;51.484;11.476;2022-09-13T07:15:35;165.68;;;157.73;;
49488;SDS011;35382;51.484;11.476;2022-09-13T07:17:16;167.43;;;159.45;;
49488;SDS011;35382;51.484;11.476;2022-09-13T07:19:00;174.20;;;165.95;;
49488;SDS011;35382;51.484;11.476;2022-09-13T07:20:45;160.05;;;152.23;;
49488;SDS011;35382;51.484;11.476;2022-09-13T07:22:26;156.50;;;148.63;;
49488;SDS011;35382;51.484;11.476;2022-09-13T07:24:07;155.60;;;147.95;;
49488;SDS011;35382;51.484;11.476;2022-09-13T07:25:55;157.00;;;149.55;;
49488;SDS011;35382;51.484;11.476;2022-09-13T07:27:41;149.10;;;141.98;;
49488;SDS011;35382;51.484;11.476;2022-09-13T07:29:22;145.70;;;138.85;;
49488;SDS011;35382;51.484;11.476;2022-09-13T07:31:10;133.23;;;126.95;;
49488;SDS011;35382;51.484;11.476;2022-09-13T07:32:53;133.85;;;127.40;;
49488;SDS011;35382;51.484;11.476;2022-09-13T07:34:34;139.23;;;132.77;;
49488;SDS011;35382;51.484;11.476;2022-09-13T07:36:15;127.47;;;121.65;;
49488;SDS011;35382;51.484;11.476;2022-09-13T07:37:56;128.65;;;122.60;;
49488;SDS011;35382;51.484;11.476;2022-09-13T07:39:37;132.23;;;126.05;;
49488;SDS011;35382;51.484;11.476;2022-09-13T07:41:21;127.65;;;121.88;;
49488;SDS011;35382;51.484;11.476;2022-09-13T07:43:03;130.85;;;124.72;;
49488;SDS011;35382;51.484;11.476;2022-09-13T07:44:44;133.82;;;127.53;;
49488;SDS011;35382;51.484;11.476;2022-09-13T07:46:25;125.75;;;119.85;;
49488;SDS011;35382;51.484;11.476;2022-09-13T07:48:08;138.02;;;131.77;;
49488;SDS011;35382;51.484;11.476;2022-09-13T07:49:49;125.75;;;120.03;;
49488;SDS011;35382;51.484;11.476;2022-09-13T07:51:31;133.57;;;127.47;;
49488;SDS011;35382;51.484;11.476;2022-09-13T07:53:13;130.02;;;124.18;;
49488;SDS011;35382;51.484;11.476;2022-09-13T07:54:54;133.48;;;127.50;;
49488;SDS011;35382;51.484;11.476;2022-09-13T07:56:37;128.43;;;122.47;;
49488;SDS011;35382;51.484;11.476;2022-09-13T07:58:19;136.88;;;130.77;;
49488;SDS011;35382;51.484;11.476;2022-09-13T08:00:00;133.75;;;127.60;;
49488;SDS011;35382;51.484;11.476;2022-09-13T08:01:42;142.68;;;136.02;;
49488;SDS011;35382;51.484;11.476;2022-09-13T08:03:27;137.48;;;131.30;;
49488;SDS011;35382;51.484;11.476;2022-09-13T08:05:09;144.20;;;137.75;;
49488;SDS011;35382;51.484;11.476;2022-09-13T08:06:50;142.95;;;136.52;;
49488;SDS011;35382;51.484;11.476;2022-09-13T08:08:31;143.88;;;137.63;;
49488;SDS011;35382;51.484;11.476;2022-09-13T08:10:13;143.18;;;136.73;;
49488;SDS011;35382;51.484;11.476;2022-09-13T08:11:54;140.98;;;134.65;;
49488;SDS011;35382;51.484;11.476;2022-09-13T08:13:36;144.70;;;138.30;;
49488;SDS011;35382;51.484;11.476;2022-09-13T08:15:17;142.90;;;136.25;;
49488;SDS011;35382;51.484;11.476;2022-09-13T08:16:58;151.27;;;144.57;;
49488;SDS011;35382;51.484;11.476;2022-09-13T08:18:45;151.93;;;145.48;;
49488;SDS011;35382;51.484;11.476;2022-09-13T08:20:27;142.88;;;136.80;;
49488;SDS011;35382;51.484;11.476;2022-09-13T08:22:08;145.82;;;139.18;;
49488;SDS011;35382;51.484;11.476;2022-09-13T08:23:52;154.93;;;148.15;;
49488;SDS011;35382;51.484;11.476;2022-09-13T08:25:35;153.23;;;146.65;;
49488;SDS011;35382;51.484;11.476;2022-09-13T08:27:16;137.20;;;130.95;;
49488;SDS011;35382;51.484;11.476;2022-09-13T08:28:58;140.50;;;134.35;;
49488;SDS011;35382;51.484;11.476;2022-09-13T08:30:40;151.90;;;145.43;;
49488;SDS011;35382;51.484;11.476;2022-09-13T08:32:23;165.27;;;158.10;;
49488;SDS011;35382;51.484;11.476;2022-09-13T08:34:03;134.20;;;128.50;;
49488;SDS011;35382;51.484;11.476;2022-09-13T08:35:48;143.02;;;136.77;;
49488;SDS011;35382;51.484;11.476;2022-09-13T08:37:32;129.93;;;124.38;;
49488;SDS011;35382;51.484;11.476;2022-09-13T08:39:13;155.48;;;148.93;;
49488;SDS011;35382;51.484;11.476;2022-09-13T08:41:01;148.95;;;142.60;;
49488;SDS011;35382;51.484;11.476;2022-09-13T08:44:46;123.95;;;118.50;;
49488;SDS011;35382;51.484;11.476;2022-09-13T08:46:32;127.53;;;121.97;;
49488;SDS011;35382;51.484;11.476;2022-09-13T08:48:18;117.68;;;112.57;;
49488;SDS011;35382;51.484;11.476;2022-09-13T08:50:10;116.68;;;111.43;;
49488;SDS011;35382;51.484;11.476;2022-09-13T08:51:55;135.15;;;129.40;;
49488;SDS011;35382;51.484;11.476;2022-09-13T08:53:42;125.93;;;120.22;;
49488;SDS011;35382;51.484;11.476;2022-09-13T08:57:32;84.65;;;80.60;;
49488;SDS011;35382;51.484;11.476;2022-09-13T09:01:12;71.20;;;67.72;;
49488;SDS011;35382;51.484;11.476;2022-09-13T09:03:01;80.88;;;76.88;;
49488;SDS011;35382;51.484;11.476;2022-09-13T09:05:17;61.72;;;58.53;;
49488;SDS011;35382;51.484;11.476;2022-09-13T09:08:53;71.50;;;67.90;;
49488;SDS011;35382;51.484;11.476;2022-09-13T09:10:44;56.55;;;53.47;;
49488;SDS011;35382;51.484;11.476;2022-09-13T09:12:42;60.20;;;57.10;;
49488;SDS011;35382;51.484;11.476;2022-09-13T09:14:35;54.90;;;52.00;;
49488;SDS011;35382;51.484;11.476;2022-09-13T09:18:43;62.00;;;58.70;;
49488;SDS011;35382;51.484;11.476;2022-09-13T09:20:42;60.35;;;57.05;;
49488;SDS011;35382;51.484;11.476;2022-09-13T09:22:26;38.70;;;36.65;;
49488;SDS011;35382;51.484;11.476;2022-09-13T09:24:22;55.67;;;52.63;;
49488;SDS011;35382;51.484;11.476;2022-09-13T09:26:15;47.15;;;44.75;;
49488;SDS011;35382;51.484;11.476;2022-09-13T09:28:01;45.80;;;43.17;;
49488;SDS011;35382;51.484;11.476;2022-09-13T09:29:51;44.33;;;41.83;;
49488;SDS011;35382;51.484;11.476;2022-09-13T09:31:40;60.25;;;57.10;;
49488;SDS011;35382;51.484;11.476;2022-09-13T09:35:35;58.13;;;55.05;;
49488;SDS011;35382;51.484;11.476;2022-09-13T09:37:21;61.03;;;57.80;;
49488;SDS011;35382;51.484;11.476;2022-09-13T09:39:06;54.75;;;51.65;;
49488;SDS011;35382;51.484;11.476;2022-09-13T09:40:51;42.05;;;39.75;;
49488;SDS011;35382;51.484;11.476;2022-09-13T09:42:37;55.70;;;52.92;;
49488;SDS011;35382;51.484;11.476;2022-09-13T09:44:26;41.83;;;39.42;;
49488;SDS011;35382;51.484;11.476;2022-09-13T09:46:10;43.95;;;41.58;;
49488;SDS011;35382;51.484;11.476;2022-09-13T09:47:55;42.50;;;39.95;;
49488;SDS011;35382;51.484;11.476;2022-09-13T09:50:31;42.10;;;40.00;;
49488;SDS011;35382;51.484;11.476;2022-09-13T09:52:05;28.98;;;26.85;;
49488;SDS011;35382;51.484;11.476;2022-09-13T09:53:51;30.23;;;28.33;;
49488;SDS011;35382;51.484;11.476;2022-09-13T09:55:46;36.78;;;34.60;;
49488;SDS011;35382;51.484;11.476;2022-09-13T09:59:45;31.30;;;29.23;;
49488;SDS011;35382;51.484;11.476;2022-09-13T10:01:27;40.63;;;38.38;;
49488;SDS011;35382;51.484;11.476;2022-09-13T10:03:16;35.88;;;33.78;;
49488;SDS011;35382;51.484;11.476;2022-09-13T10:04:59;37.60;;;35.22;;
49488;SDS011;35382;51.484;11.476;2022-09-13T10:06:42;41.00;;;38.70;;
49488;SDS011;35382;51.484;11.476;2022-09-13T10:08:27;48.10;;;45.42;;
49488;SDS011;35382;51.484;11.476;2022-09-13T10:10:19;39.90;;;37.45;;
49488;SDS011;35382;51.484;11.476;2022-09-13T10:12:04;42.10;;;39.75;;
49488;SDS011;35382;51.484;11.476;2022-09-13T10:13:56;45.53;;;43.00;;
49488;SDS011;35382;51.484;11.476;2022-09-13T10:15:38;49.92;;;47.33;;
49488;SDS011;35382;51.484;11.476;2022-09-13T10:17:38;38.50;;;36.13;;
49488;SDS011;35382;51.484;11.476;2022-09-13T10:19:21;37.13;;;35.08;;
49488;SDS011;35382;51.484;11.476;2022-09-13T10:23:11;38.75;;;36.70;;
49488;SDS011;35382;51.484;11.476;2022-09-13T10:25:20;31.02;;;29.23;;
49488;SDS011;35382;51.484;11.476;2022-09-13T10:27:02;29.67;;;27.77;;
49488;SDS011;35382;51.484;11.476;2022-09-13T10:28:45;35.20;;;33.17;;
49488;SDS011;35382;51.484;11.476;2022-09-13T10:30:39;32.78;;;30.83;;
49488;SDS011;35382;51.484;11.476;2022-09-13T10:32:24;34.63;;;32.75;;
49488;SDS011;35382;51.484;11.476;2022-09-13T10:34:10;28.27;;;26.70;;
49488;SDS011;35382;51.484;11.476;2022-09-13T10:35:53;32.38;;;30.58;;
49488;SDS011;35382;51.484;11.476;2022-09-13T10:37:37;29.60;;;27.88;;
49488;SDS011;35382;51.484;11.476;2022-09-13T10:39:23;29.55;;;27.70;;
49488;SDS011;35382;51.484;11.476;2022-09-13T10:41:06;38.03;;;35.92;;
49488;SDS011;35382;51.484;11.476;2022-09-13T10:42:55;30.15;;;28.27;;
49488;SDS011;35382;51.484;11.476;2022-09-13T10:46:27;36.10;;;34.10;;
49488;SDS011;35382;51.484;11.476;2022-09-13T10:48:12;31.00;;;29.25;;
49488;SDS011;35382;51.484;11.476;2022-09-13T10:49:56;28.80;;;27.20;;